sensor_id;sensor_type;location;lat;lon;timestamp;pressure;altitude;pressure_sealevel;temperature;humidity
58686;BME280;44465;53.206;-6.106;2023-04-23T00:00:28;100101.97;;;21.07;52.76
58686;BME280;44465;53.206;-6.106;2023-04-23T00:02:56;100101.97;;;21.07;52.75
58686;BME280;44465;53.206;-6.106;2023-04-23T00:05:23;100100.66;;;21.00;52.79
58686;BME280;44465;53.206;-6.106;2023-04-23T00:07:52;100099.47;;;21.04;53.25
58686;BME280;44465;53.206;-6.106;2023-04-23T00:10:18;100087.28;;;21.00;52.92
58686;BME280;44465;53.206;-6.106;2023-04-23T00:12:44;100088.97;;;21.01;52.66
58686;BME280;44465;53.206;-6.106;2023-04-23T00:15:10;100095.09;;;21.03;52.58
58686;BME280;44465;53.206;-6.106;2023-04-23T00:17:36;100085.56;;;20.99;52.80
58686;BME280;44465;53.206;-6.106;2023-04-23T00:20:02;100088.97;;;21.01;52.84
58686;BME280;44465;53.206;-6.106;2023-04-23T00:22:27;100093.38;;;21.02;52.56
58686;BME280;44465;53.206;-6.106;2023-04-23T00:24:53;100087.28;;;21.00;52.88
58686;BME280;44465;53.206;-6.106;2023-04-23T00:27:18;100084.81;;;20.97;52.69
58686;BME280;44465;53.206;-6.106;2023-04-23T00:29:45;100095.19;;;21.02;52.93
58686;BME280;44465;53.206;-6.106;2023-04-23T00:32:11;100086.97;;;21.05;52.66
58686;BME280;44465;53.206;-6.106;2023-04-23T00:34:38;100089.09;;;21.00;52.67
58686;BME280;44465;53.206;-6.106;2023-04-23T00:37:04;100091.56;;;21.03;52.84
58686;BME280;44465;53.206;-6.106;2023-04-23T00:39:31;100078.38;;;21.00;52.48
58686;BME280;44465;53.206;-6.106;2023-04-23T00:41:57;100095.09;;;21.03;52.60
58686;BME280;44465;53.206;-6.106;2023-04-23T00:44:24;100074.84;;;20.99;52.83
58686;BME280;44465;53.206;-6.106;2023-04-23T00:46:50;100089.72;;;21.03;52.56
58686;BME280;44465;53.206;-6.106;2023-04-23T00:49:18;100073.97;;;20.99;52.50
58686;BME280;44465;53.206;-6.106;2023-04-23T00:51:43;100066.25;;;20.94;52.94
58686;BME280;44465;53.206;-6.106;2023-04-23T00:54:09;100071.31;;;20.99;52.70
58686;BME280;44465;53.206;-6.106;2023-04-23T00:56:34;100074.09;;;20.97;52.90
58686;BME280;44465;53.206;-6.106;2023-04-23T00:59:00;100080.41;;;20.96;52.62
58686;BME280;44465;53.206;-6.106;2023-04-23T01:01:27;100075.06;;;20.96;52.72
58686;BME280;44465;53.206;-6.106;2023-04-23T01:03:54;100084.81;;;20.97;52.67
58686;BME280;44465;53.206;-6.106;2023-04-23T01:06:20;100083.84;;;20.98;52.82
58686;BME280;44465;53.206;-6.106;2023-04-23T01:08:49;100090.03;;;20.99;52.75
58686;BME280;44465;53.206;-6.106;2023-04-23T01:11:15;100090.03;;;20.99;52.66
58686;BME280;44465;53.206;-6.106;2023-04-23T01:13:41;100087.47;;;20.97;52.94
58686;BME280;44465;53.206;-6.106;2023-04-23T01:16:07;100092.72;;;20.99;52.41
58686;BME280;44465;53.206;-6.106;2023-04-23T01:18:33;100097.22;;;20.98;52.62
58686;BME280;44465;53.206;-6.106;2023-04-23T01:20:59;100091.22;;;20.95;52.64
58686;BME280;44465;53.206;-6.106;2023-04-23T01:23:24;100092.72;;;20.99;52.73
58686;BME280;44465;53.206;-6.106;2023-04-23T01:25:52;100085.75;;;20.96;52.65
58686;BME280;44465;53.206;-6.106;2023-04-23T01:28:17;100094.75;;;20.95;52.82
58686;BME280;44465;53.206;-6.106;2023-04-23T01:30:43;100088.44;;;20.96;52.84
58686;BME280;44465;53.206;-6.106;2023-04-23T01:33:10;100082.44;;;20.92;52.49
58686;BME280;44465;53.206;-6.106;2023-04-23T01:35:36;100085.94;;;20.93;52.72
58686;BME280;44465;53.206;-6.106;2023-04-23T01:38:02;100089.38;;;20.95;52.65
58686;BME280;44465;53.206;-6.106;2023-04-23T01:40:28;100073.53;;;20.92;52.63
58686;BME280;44465;53.206;-6.106;2023-04-23T01:42:54;100082.13;;;20.97;52.72
58686;BME280;44465;53.206;-6.106;2023-04-23T01:45:20;100081.47;;;20.94;52.70
58686;BME280;44465;53.206;-6.106;2023-04-23T01:47:46;100070.84;;;20.92;52.68
58686;BME280;44465;53.206;-6.106;2023-04-23T01:50:12;100080.59;;;20.93;52.59
58686;BME280;44465;53.206;-6.106;2023-04-23T01:52:37;100066.47;;;20.91;52.50
58686;BME280;44465;53.206;-6.106;2023-04-23T01:55:03;100071.06;;;20.89;52.48
58686;BME280;44465;53.206;-6.106;2023-04-23T01:57:29;100073.53;;;20.92;52.53
58686;BME280;44465;53.206;-6.106;2023-04-23T02:00:07;100066.25;;;20.94;52.55
58686;BME280;44465;53.206;-6.106;2023-04-23T02:02:38;100067.13;;;20.95;52.67
58686;BME280;44465;53.206;-6.106;2023-04-23T02:05:09;100058.34;;;20.92;52.58
58686;BME280;44465;53.206;-6.106;2023-04-23T02:07:35;100057.47;;;20.92;52.58
58686;BME280;44465;53.206;-6.106;2023-04-23T02:10:01;100062.81;;;20.92;52.72
58686;BME280;44465;53.206;-6.106;2023-04-23T02:12:27;100061.97;;;20.91;52.74
58686;BME280;44465;53.206;-6.106;2023-04-23T02:14:53;100053.06;;;20.91;52.69
58686;BME280;44465;53.206;-6.106;2023-04-23T02:17:21;100052.53;;;20.86;52.55
58686;BME280;44465;53.206;-6.106;2023-04-23T02:19:50;100057.47;;;20.92;52.67
58686;BME280;44465;53.206;-6.106;2023-04-23T02:22:16;100055.03;;;20.89;52.82
58686;BME280;44465;53.206;-6.106;2023-04-23T02:24:42;100059.41;;;20.90;52.63
58686;BME280;44465;53.206;-6.106;2023-04-23T02:27:09;100060.25;;;20.90;52.66
58686;BME280;44465;53.206;-6.106;2023-04-23T02:29:35;100053.38;;;20.86;52.71
58686;BME280;44465;53.206;-6.106;2023-04-23T02:32:02;100061.09;;;20.91;52.50
58686;BME280;44465;53.206;-6.106;2023-04-23T02:34:27;100052.34;;;20.89;52.75
58686;BME280;44465;53.206;-6.106;2023-04-23T02:36:53;100057.69;;;20.89;52.63
58686;BME280;44465;53.206;-6.106;2023-04-23T02:39:18;100055.97;;;20.88;52.69
58686;BME280;44465;53.206;-6.106;2023-04-23T02:41:44;100051.00;;;20.82;52.85
58686;BME280;44465;53.206;-6.106;2023-04-23T02:44:09;100058.66;;;20.88;52.42
58686;BME280;44465;53.206;-6.106;2023-04-23T02:46:35;100055.97;;;20.88;52.73
58686;BME280;44465;53.206;-6.106;2023-04-23T02:49:02;100059.81;;;20.84;52.62
58686;BME280;44465;53.206;-6.106;2023-04-23T02:51:28;100064.19;;;20.85;52.62
58686;BME280;44465;53.206;-6.106;2023-04-23T02:53:53;100063.25;;;20.86;52.70
58686;BME280;44465;53.206;-6.106;2023-04-23T02:56:19;100057.69;;;20.89;52.73
58686;BME280;44465;53.206;-6.106;2023-04-23T02:58:45;100055.97;;;20.88;52.66
58686;BME280;44465;53.206;-6.106;2023-04-23T03:01:10;100047.19;;;20.86;52.49
58686;BME280;44465;53.206;-6.106;2023-04-23T03:03:36;100050.81;;;20.85;52.45
58686;BME280;44465;53.206;-6.106;2023-04-23T03:06:03;100064.97;;;20.87;52.78
58686;BME280;44465;53.206;-6.106;2023-04-23T03:08:28;100048.91;;;20.87;52.35
58686;BME280;44465;53.206;-6.106;2023-04-23T03:10:54;100055.97;;;20.88;52.71
58686;BME280;44465;53.206;-6.106;2023-04-23T03:13:20;100052.53;;;20.86;52.34
58686;BME280;44465;53.206;-6.106;2023-04-23T03:15:46;100049.97;;;20.84;52.64
58686;BME280;44465;53.206;-6.106;2023-04-23T03:18:12;100051.78;;;20.84;52.47
58686;BME280;44465;53.206;-6.106;2023-04-23T03:20:38;100052.72;;;20.83;52.50
58686;BME280;44465;53.206;-6.106;2023-04-23T03:23:03;100058.09;;;20.83;52.68
58686;BME280;44465;53.206;-6.106;2023-04-23T03:25:32;100069.56;;;20.85;52.63
58686;BME280;44465;53.206;-6.106;2023-04-23T03:27:58;100072.22;;;20.85;52.52
58686;BME280;44465;53.206;-6.106;2023-04-23T03:30:25;100065.16;;;20.84;52.40
58686;BME280;44465;53.206;-6.106;2023-04-23T03:32:53;100069.56;;;20.85;52.71
58686;BME280;44465;53.206;-6.106;2023-04-23T03:35:19;100061.72;;;20.82;52.47
58686;BME280;44465;53.206;-6.106;2023-04-23T03:37:46;100057.44;;;20.79;52.73
58686;BME280;44465;53.206;-6.106;2023-04-23T03:40:12;100060.75;;;20.83;52.65
58686;BME280;44465;53.206;-6.106;2023-04-23T03:42:40;100064.31;;;20.83;52.53
58686;BME280;44465;53.206;-6.106;2023-04-23T03:45:07;100060.97;;;20.80;52.77
58686;BME280;44465;53.206;-6.106;2023-04-23T03:47:32;100068.78;;;20.83;52.57
58686;BME280;44465;53.206;-6.106;2023-04-23T03:49:58;100071.47;;;20.83;52.40
58686;BME280;44465;53.206;-6.106;2023-04-23T03:52:24;100063.44;;;20.83;52.64
58686;BME280;44465;53.206;-6.106;2023-04-23T03:54:51;100066.22;;;20.81;52.41
58686;BME280;44465;53.206;-6.106;2023-04-23T03:57:19;100075.09;;;20.82;52.51
58686;BME280;44465;53.206;-6.106;2023-04-23T04:00:17;100059.47;;;20.75;52.82
58686;BME280;44465;53.206;-6.106;2023-04-23T04:02:43;100064.63;;;20.79;52.69
58686;BME280;44465;53.206;-6.106;2023-04-23T04:05:08;100071.56;;;20.81;52.52
58686;BME280;44465;53.206;-6.106;2023-04-23T04:07:35;100063.84;;;20.76;52.84
58686;BME280;44465;53.206;-6.106;2023-04-23T04:10:01;100073.28;;;20.82;52.58
58686;BME280;44465;53.206;-6.106;2023-04-23T04:12:28;100051.53;;;20.74;52.52
58686;BME280;44465;53.206;-6.106;2023-04-23T04:14:53;100070.69;;;20.81;52.51
58686;BME280;44465;53.206;-6.106;2023-04-23T04:17:19;100064.69;;;20.77;52.42
58686;BME280;44465;53.206;-6.106;2023-04-23T04:19:44;100070.69;;;20.81;52.67
58686;BME280;44465;53.206;-6.106;2023-04-23T04:22:10;100078.66;;;20.82;52.60
58686;BME280;44465;53.206;-6.106;2023-04-23T04:24:36;100081.22;;;20.84;52.54
58686;BME280;44465;53.206;-6.106;2023-04-23T04:27:02;100068.25;;;20.77;52.54
58686;BME280;44465;53.206;-6.106;2023-04-23T04:29:27;100072.22;;;20.85;52.52
58686;BME280;44465;53.206;-6.106;2023-04-23T04:31:53;100075.22;;;20.80;52.56
58686;BME280;44465;53.206;-6.106;2023-04-23T04:34:19;100075.84;;;20.84;52.63
58686;BME280;44465;53.206;-6.106;2023-04-23T04:36:45;100077.78;;;20.82;52.65
58686;BME280;44465;53.206;-6.106;2023-04-23T04:39:11;100074.13;;;20.83;52.79
58686;BME280;44465;53.206;-6.106;2023-04-23T04:41:38;100082.09;;;20.84;52.52
58686;BME280;44465;53.206;-6.106;2023-04-23T04:44:04;100078.72;;;20.81;52.42
58686;BME280;44465;53.206;-6.106;2023-04-23T04:46:29;100084.75;;;20.84;52.48
58686;BME280;44465;53.206;-6.106;2023-04-23T04:48:56;100069.75;;;20.82;52.61
58686;BME280;44465;53.206;-6.106;2023-04-23T04:51:21;100087.22;;;20.87;52.67
58686;BME280;44465;53.206;-6.106;2023-04-23T04:53:47;100077.47;;;20.86;52.62
58686;BME280;44465;53.206;-6.106;2023-04-23T04:56:12;100082.81;;;20.86;52.54
58686;BME280;44465;53.206;-6.106;2023-04-23T04:58:38;100077.38;;;20.88;52.50
58686;BME280;44465;53.206;-6.106;2023-04-23T05:01:03;100072.41;;;20.82;52.45
58686;BME280;44465;53.206;-6.106;2023-04-23T05:03:29;100074.72;;;20.88;52.68
58686;BME280;44465;53.206;-6.106;2023-04-23T05:05:55;100077.56;;;20.85;52.52
58686;BME280;44465;53.206;-6.106;2023-04-23T05:08:23;100077.69;;;20.83;52.57
58686;BME280;44465;53.206;-6.106;2023-04-23T05:10:48;100083.78;;;20.85;52.66
58686;BME280;44465;53.206;-6.106;2023-04-23T05:13:18;100075.84;;;20.84;52.56
58686;BME280;44465;53.206;-6.106;2023-04-23T05:15:47;100075.75;;;20.85;52.60
58686;BME280;44465;53.206;-6.106;2023-04-23T05:18:12;100084.84;;;20.83;52.64
58686;BME280;44465;53.206;-6.106;2023-04-23T05:20:38;100080.38;;;20.83;52.68
58686;BME280;44465;53.206;-6.106;2023-04-23T05:23:03;100082.81;;;20.86;52.36
58686;BME280;44465;53.206;-6.106;2023-04-23T05:25:29;100082.94;;;20.85;52.67
58686;BME280;44465;53.206;-6.106;2023-04-23T05:27:55;100087.22;;;20.87;52.62
58686;BME280;44465;53.206;-6.106;2023-04-23T05:30:21;100081.78;;;20.89;52.52
58686;BME280;44465;53.206;-6.106;2023-04-23T05:32:46;100082.75;;;20.88;52.71
58686;BME280;44465;53.206;-6.106;2023-04-23T05:35:12;100080.06;;;20.88;52.67
58686;BME280;44465;53.206;-6.106;2023-04-23T05:37:37;100084.66;;;20.86;52.56
58686;BME280;44465;53.206;-6.106;2023-04-23T05:40:03;100090.66;;;20.89;52.46
58686;BME280;44465;53.206;-6.106;2023-04-23T05:42:31;100099.63;;;20.88;52.50
58686;BME280;44465;53.206;-6.106;2023-04-23T05:44:56;100101.34;;;20.89;52.72
58686;BME280;44465;53.206;-6.106;2023-04-23T05:47:22;100094.69;;;20.82;52.60
58686;BME280;44465;53.206;-6.106;2023-04-23T05:49:47;100094.41;;;20.87;52.77
58686;BME280;44465;53.206;-6.106;2023-04-23T05:52:13;100094.47;;;20.85;52.62
58686;BME280;44465;53.206;-6.106;2023-04-23T05:54:38;100113.13;;;20.87;52.56
58686;BME280;44465;53.206;-6.106;2023-04-23T05:57:03;100103.28;;;20.87;52.66
58686;BME280;44465;53.206;-6.106;2023-04-23T05:59:30;100101.47;;;20.88;52.64
58686;BME280;44465;53.206;-6.106;2023-04-23T06:01:55;100104.22;;;20.86;52.43
58686;BME280;44465;53.206;-6.106;2023-04-23T06:04:21;100106.91;;;20.86;52.67
58686;BME280;44465;53.206;-6.106;2023-04-23T06:06:46;100099.09;;;20.83;52.16
58686;BME280;44465;53.206;-6.106;2023-04-23T06:09:12;100105.09;;;20.87;52.42
58686;BME280;44465;53.206;-6.106;2023-04-23T06:11:37;100117.41;;;20.89;52.32
58686;BME280;44465;53.206;-6.106;2023-04-23T06:14:03;100119.97;;;20.91;52.59
58686;BME280;44465;53.206;-6.106;2023-04-23T06:16:29;100117.22;;;20.92;52.63
58686;BME280;44465;53.206;-6.106;2023-04-23T06:18:54;100122.66;;;20.91;52.40
58686;BME280;44465;53.206;-6.106;2023-04-23T06:21:22;100123.66;;;20.90;52.52
58686;BME280;44465;53.206;-6.106;2023-04-23T06:23:48;100116.56;;;20.89;52.61
58686;BME280;44465;53.206;-6.106;2023-04-23T06:26:14;100121.16;;;20.87;52.48
58686;BME280;44465;53.206;-6.106;2023-04-23T06:28:41;100121.94;;;20.89;52.56
58686;BME280;44465;53.206;-6.106;2023-04-23T06:31:39;100120.19;;;20.88;52.70
58686;BME280;44465;53.206;-6.106;2023-04-23T06:34:06;100112.38;;;20.85;52.76
58686;BME280;44465;53.206;-6.106;2023-04-23T06:36:31;100116.75;;;20.86;52.49
58686;BME280;44465;53.206;-6.106;2023-04-23T06:38:57;100114.84;;;20.88;52.60
58686;BME280;44465;53.206;-6.106;2023-04-23T06:41:22;100115.69;;;20.88;52.60
58686;BME280;44465;53.206;-6.106;2023-04-23T06:43:59;100125.34;;;20.91;52.48
58686;BME280;44465;53.206;-6.106;2023-04-23T06:46:34;100118.47;;;20.87;52.54
58686;BME280;44465;53.206;-6.106;2023-04-23T06:49:00;100129.00;;;20.90;52.58
58686;BME280;44465;53.206;-6.106;2023-04-23T06:51:25;100129.72;;;20.92;52.45
58686;BME280;44465;53.206;-6.106;2023-04-23T06:53:52;100136.91;;;20.91;52.46
58686;BME280;44465;53.206;-6.106;2023-04-23T06:56:18;100143.13;;;20.92;52.68
58686;BME280;44465;53.206;-6.106;2023-04-23T06:58:44;100134.13;;;20.93;52.40
58686;BME280;44465;53.206;-6.106;2023-04-23T07:01:15;100144.84;;;20.93;52.74
58686;BME280;44465;53.206;-6.106;2023-04-23T07:03:41;100136.25;;;20.88;52.35
58686;BME280;44465;53.206;-6.106;2023-04-23T07:06:09;100144.94;;;20.91;52.51
58686;BME280;44465;53.206;-6.106;2023-04-23T07:08:35;100146.84;;;20.89;52.53
58686;BME280;44465;53.206;-6.106;2023-04-23T07:11:00;100153.81;;;20.92;52.65
58686;BME280;44465;53.206;-6.106;2023-04-23T07:13:26;100152.97;;;20.91;52.39
58686;BME280;44465;53.206;-6.106;2023-04-23T07:15:52;100146.56;;;20.94;52.30
58686;BME280;44465;53.206;-6.106;2023-04-23T07:18:17;100158.97;;;20.95;52.43
58686;BME280;44465;53.206;-6.106;2023-04-23T07:20:43;100146.56;;;20.94;52.52
58686;BME280;44465;53.206;-6.106;2023-04-23T07:23:08;100146.75;;;20.91;52.37
58686;BME280;44465;53.206;-6.106;2023-04-23T07:25:34;100151.91;;;20.94;52.53
58686;BME280;44465;53.206;-6.106;2023-04-23T07:28:00;100157.06;;;20.97;52.47
58686;BME280;44465;53.206;-6.106;2023-04-23T07:30:26;100149.88;;;20.98;52.55
58686;BME280;44465;53.206;-6.106;2023-04-23T07:32:52;100145.59;;;20.95;52.51
58686;BME280;44465;53.206;-6.106;2023-04-23T07:35:18;100159.75;;;20.97;52.56
58686;BME280;44465;53.206;-6.106;2023-04-23T07:37:43;100150.94;;;20.95;52.32
58686;BME280;44465;53.206;-6.106;2023-04-23T07:40:09;100157.91;;;20.98;52.46
58686;BME280;44465;53.206;-6.106;2023-04-23T07:42:34;100156.31;;;20.95;52.48
58686;BME280;44465;53.206;-6.106;2023-04-23T07:45:00;100162.41;;;20.97;52.49
58686;BME280;44465;53.206;-6.106;2023-04-23T07:47:25;100159.94;;;20.94;52.30
58686;BME280;44465;53.206;-6.106;2023-04-23T07:49:51;100160.69;;;20.96;52.76
58686;BME280;44465;53.206;-6.106;2023-04-23T07:52:16;100171.41;;;20.96;52.52
58686;BME280;44465;53.206;-6.106;2023-04-23T07:54:42;100166.91;;;20.97;52.35
58686;BME280;44465;53.206;-6.106;2023-04-23T07:57:08;100161.84;;;20.92;52.41
58686;BME280;44465;53.206;-6.106;2023-04-23T07:59:34;100172.06;;;21.00;52.28
58686;BME280;44465;53.206;-6.106;2023-04-23T08:02:00;100178.28;;;21.00;52.28
58686;BME280;44465;53.206;-6.106;2023-04-23T08:04:25;100176.56;;;20.99;52.39
58686;BME280;44465;53.206;-6.106;2023-04-23T08:06:51;100184.59;;;20.99;52.36
58686;BME280;44465;53.206;-6.106;2023-04-23T08:09:16;100175.88;;;20.96;52.34
58686;BME280;44465;53.206;-6.106;2023-04-23T08:11:42;100182.78;;;21.00;52.24
58686;BME280;44465;53.206;-6.106;2023-04-23T08:14:07;100183.84;;;20.97;52.03
58686;BME280;44465;53.206;-6.106;2023-04-23T08:16:33;100185.56;;;20.98;52.34
58686;BME280;44465;53.206;-6.106;2023-04-23T08:18:58;100186.41;;;20.99;52.15
58686;BME280;44465;53.206;-6.106;2023-04-23T08:21:24;100183.44;;;21.03;52.25
58686;BME280;44465;53.206;-6.106;2023-04-23T08:23:51;100177.72;;;20.95;52.24
58686;BME280;44465;53.206;-6.106;2023-04-23T08:26:16;100185.56;;;20.98;52.43
58686;BME280;44465;53.206;-6.106;2023-04-23T08:28:42;100189.72;;;21.02;52.17
58686;BME280;44465;53.206;-6.106;2023-04-23T08:31:07;100187.28;;;20.99;52.35
58686;BME280;44465;53.206;-6.106;2023-04-23T08:33:33;100189.00;;;21.00;52.21
58686;BME280;44465;53.206;-6.106;2023-04-23T08:35:58;100198.53;;;21.04;52.44
58686;BME280;44465;53.206;-6.106;2023-04-23T08:38:24;100196.91;;;21.02;52.52
58686;BME280;44465;53.206;-6.106;2023-04-23T08:40:55;100198.34;;;21.07;52.57
58686;BME280;44465;53.206;-6.106;2023-04-23T08:43:45;100202.94;;;21.05;52.92
58686;BME280;44465;53.206;-6.106;2023-04-23T08:46:10;100201.03;;;21.07;52.53
58686;BME280;44465;53.206;-6.106;2023-04-23T08:48:36;100201.63;;;20.98;52.33
58686;BME280;44465;53.206;-6.106;2023-04-23T08:51:05;100197.69;;;21.04;52.63
58686;BME280;44465;53.206;-6.106;2023-04-23T08:53:32;100200.25;;;21.05;52.65
58686;BME280;44465;53.206;-6.106;2023-04-23T08:55:58;100210.78;;;21.08;52.52
58686;BME280;44465;53.206;-6.106;2023-04-23T08:58:24;100207.31;;;21.06;52.63
58686;BME280;44465;53.206;-6.106;2023-04-23T09:00:53;100206.75;;;21.01;52.68
58686;BME280;44465;53.206;-6.106;2023-04-23T09:03:20;100212.56;;;21.08;52.51
58686;BME280;44465;53.206;-6.106;2023-04-23T09:05:47;100222.25;;;21.11;52.75
58686;BME280;44465;53.206;-6.106;2023-04-23T09:08:12;100222.44;;;21.07;52.30
58686;BME280;44465;53.206;-6.106;2023-04-23T09:10:39;100221.66;;;21.05;52.30
58686;BME280;44465;53.206;-6.106;2023-04-23T09:13:05;100223.03;;;20.98;52.52
58686;BME280;44465;53.206;-6.106;2023-04-23T09:15:31;100218.44;;;21.00;52.47
58686;BME280;44465;53.206;-6.106;2023-04-23T09:17:57;100222.44;;;21.07;52.42
58686;BME280;44465;53.206;-6.106;2023-04-23T09:20:23;100224.16;;;21.08;52.28
58686;BME280;44465;53.206;-6.106;2023-04-23T09:22:50;100225.78;;;21.11;52.45
58686;BME280;44465;53.206;-6.106;2023-04-23T09:25:19;100225.88;;;21.10;52.27
58686;BME280;44465;53.206;-6.106;2023-04-23T09:30:11;100231.97;;;21.12;52.24
58686;BME280;44465;53.206;-6.106;2023-04-23T09:32:38;100235.63;;;21.11;52.27
58686;BME280;44465;53.206;-6.106;2023-04-23T09:35:06;100235.41;;;21.14;52.10
58686;BME280;44465;53.206;-6.106;2023-04-23T09:37:33;100234.66;;;21.12;52.38
58686;BME280;44465;53.206;-6.106;2023-04-23T09:40:03;100239.63;;;21.18;52.20
58686;BME280;44465;53.206;-6.106;2023-04-23T09:42:31;100239.03;;;21.13;52.07
58686;BME280;44465;53.206;-6.106;2023-04-23T09:45:01;100240.78;;;21.14;52.18
58686;BME280;44465;53.206;-6.106;2023-04-23T09:49:58;100249.75;;;21.13;52.24
58686;BME280;44465;53.206;-6.106;2023-04-23T09:52:23;100240.78;;;21.14;52.24
58686;BME280;44465;53.206;-6.106;2023-04-23T09:54:49;100252.25;;;21.16;52.23
58686;BME280;44465;53.206;-6.106;2023-04-23T09:57:15;100257.41;;;21.19;52.27
58686;BME280;44465;53.206;-6.106;2023-04-23T09:59:40;100254.06;;;21.15;52.36
58686;BME280;44465;53.206;-6.106;2023-04-23T10:02:09;100255.69;;;21.18;52.22
58686;BME280;44465;53.206;-6.106;2023-04-23T10:04:36;100259.31;;;21.17;52.31
58686;BME280;44465;53.206;-6.106;2023-04-23T10:07:03;100257.59;;;21.16;52.25
58686;BME280;44465;53.206;-6.106;2023-04-23T10:09:32;100267.16;;;21.20;52.13
58686;BME280;44465;53.206;-6.106;2023-04-23T10:12:00;100266.41;;;21.18;51.97
58686;BME280;44465;53.206;-6.106;2023-04-23T10:14:29;100272.53;;;21.20;51.87
58686;BME280;44465;53.206;-6.106;2023-04-23T10:17:01;100269.84;;;21.20;52.20
58686;BME280;44465;53.206;-6.106;2023-04-23T10:19:28;100270.69;;;21.20;52.02
58686;BME280;44465;53.206;-6.106;2023-04-23T10:21:55;100276.03;;;21.20;52.05
58686;BME280;44465;53.206;-6.106;2023-04-23T10:24:26;100276.03;;;21.20;52.19
58686;BME280;44465;53.206;-6.106;2023-04-23T10:26:59;100276.91;;;21.21;52.17
58686;BME280;44465;53.206;-6.106;2023-04-23T10:29:26;100269.06;;;21.18;52.20
58686;BME280;44465;53.206;-6.106;2023-04-23T10:31:54;100275.19;;;21.20;52.27
58686;BME280;44465;53.206;-6.106;2023-04-23T10:34:25;100274.25;;;21.21;52.50
58686;BME280;44465;53.206;-6.106;2023-04-23T10:36:51;100277.00;;;21.19;52.24
58686;BME280;44465;53.206;-6.106;2023-04-23T10:39:20;100289.25;;;21.23;52.24
58686;BME280;44465;53.206;-6.106;2023-04-23T10:41:46;100283.13;;;21.21;52.20
58686;BME280;44465;53.206;-6.106;2023-04-23T10:44:13;100285.69;;;21.23;52.11
58686;BME280;44465;53.206;-6.106;2023-04-23T10:46:50;100292.78;;;21.24;52.00
58686;BME280;44465;53.206;-6.106;2023-04-23T10:49:16;100289.25;;;21.23;52.21
58686;BME280;44465;53.206;-6.106;2023-04-23T10:51:45;100288.19;;;21.26;52.02
58686;BME280;44465;53.206;-6.106;2023-04-23T10:54:15;100279.50;;;21.22;51.96
58686;BME280;44465;53.206;-6.106;2023-04-23T10:56:43;100291.03;;;21.23;52.04
58686;BME280;44465;53.206;-6.106;2023-04-23T10:59:19;100295.38;;;21.26;51.95
58686;BME280;44465;53.206;-6.106;2023-04-23T11:01:48;100306.09;;;21.26;52.22
58686;BME280;44465;53.206;-6.106;2023-04-23T11:06:51;100309.59;;;21.26;52.22
58686;BME280;44465;53.206;-6.106;2023-04-23T11:11:57;100313.63;;;21.19;52.25
58686;BME280;44465;53.206;-6.106;2023-04-23T11:14:53;100312.69;;;21.20;51.99
58686;BME280;44465;53.206;-6.106;2023-04-23T11:17:23;100309.59;;;21.26;52.27
58686;BME280;44465;53.206;-6.106;2023-04-23T11:20:13;100301.75;;;21.23;52.10
58686;BME280;44465;53.206;-6.106;2023-04-23T11:22:43;100314.13;;;21.26;51.89
58686;BME280;44465;53.206;-6.106;2023-04-23T11:25:13;100310.38;;;21.28;51.93
58686;BME280;44465;53.206;-6.106;2023-04-23T11:27:43;100318.22;;;21.31;51.85
58686;BME280;44465;53.206;-6.106;2023-04-23T11:30:19;100313.81;;;21.30;51.87
58686;BME280;44465;53.206;-6.106;2023-04-23T11:32:47;100320.91;;;21.31;51.90
58686;BME280;44465;53.206;-6.106;2023-04-23T11:35:14;100318.97;;;21.33;51.88
58686;BME280;44465;53.206;-6.106;2023-04-23T11:37:41;100324.53;;;21.30;51.83
58686;BME280;44465;53.206;-6.106;2023-04-23T11:40:09;100326.25;;;21.31;51.79
58686;BME280;44465;53.206;-6.106;2023-04-23T11:43:08;100326.81;;;21.22;51.91
58686;BME280;44465;53.206;-6.106;2023-04-23T11:45:28;100331.97;;;21.25;52.01
58686;BME280;44465;53.206;-6.106;2023-04-23T11:47:56;100339.06;;;21.26;52.01
58686;BME280;44465;53.206;-6.106;2023-04-23T11:50:24;100345.84;;;21.32;51.87
58686;BME280;44465;53.206;-6.106;2023-04-23T11:52:50;100339.66;;;21.31;51.80
58686;BME280;44465;53.206;-6.106;2023-04-23T11:55:17;100341.56;;;21.29;51.72
58686;BME280;44465;53.206;-6.106;2023-04-23T11:57:45;100345.00;;;21.31;51.71
58686;BME280;44465;53.206;-6.106;2023-04-23T12:00:18;100350.84;;;21.23;51.85
58686;BME280;44465;53.206;-6.106;2023-04-23T12:03:01;100342.69;;;21.25;51.69
58686;BME280;44465;53.206;-6.106;2023-04-23T12:05:30;100351.38;;;21.29;51.73
58686;BME280;44465;53.206;-6.106;2023-04-23T12:08:19;100356.66;;;21.30;51.75
58686;BME280;44465;53.206;-6.106;2023-04-23T12:13:26;100358.38;;;21.31;51.75
58686;BME280;44465;53.206;-6.106;2023-04-23T12:16:01;100358.38;;;21.31;51.63
58686;BME280;44465;53.206;-6.106;2023-04-23T12:18:28;100366.13;;;21.36;51.66
58686;BME280;44465;53.206;-6.106;2023-04-23T12:20:53;100358.19;;;21.34;51.47
58686;BME280;44465;53.206;-6.106;2023-04-23T12:23:25;100369.66;;;21.36;51.47
58686;BME280;44465;53.206;-6.106;2023-04-23T12:25:55;100359.06;;;21.35;51.54
58686;BME280;44465;53.206;-6.106;2023-04-23T12:28:24;100372.34;;;21.36;51.50
58686;BME280;44465;53.206;-6.106;2023-04-23T12:30:50;100372.34;;;21.36;51.46
58686;BME280;44465;53.206;-6.106;2023-04-23T12:33:17;100366.22;;;21.34;51.33
58686;BME280;44465;53.206;-6.106;2023-04-23T12:35:44;100372.34;;;21.36;51.28
58686;BME280;44465;53.206;-6.106;2023-04-23T12:38:20;100378.28;;;21.27;51.62
58686;BME280;44465;53.206;-6.106;2023-04-23T12:40:46;100379.81;;;21.31;51.50
58686;BME280;44465;53.206;-6.106;2023-04-23T12:43:12;100381.31;;;21.35;51.46
58686;BME280;44465;53.206;-6.106;2023-04-23T12:45:37;100371.50;;;21.36;51.36
58686;BME280;44465;53.206;-6.106;2023-04-23T12:48:03;100383.06;;;21.36;51.30
58686;BME280;44465;53.206;-6.106;2023-04-23T12:50:29;100379.59;;;21.34;51.43
58686;BME280;44465;53.206;-6.106;2023-04-23T12:52:54;100386.69;;;21.35;51.27